Terminal Aerodrome Forecast
Issued by NWS

Home | Current Version | Previous Version | Text Only | Print | Product List | Glossary On
Versions: 1 2 3 4 5 6 7 8 9 10 11 12 13 14 15 16 17
000
FTUS43 KLSX 271724
TAFCPS
TAF
KCPS 271724Z 2718/2818 27006KT P6SM VCSH OVC030
     FM280100 VRB03KT P6SM BKN045
     FM280700 01005KT 5SM BR BKN015
     FM281600 36009KT P6SM BKN035=

USA.gov is the U.S. government's official web portal to all federal, state and local government web resources and services.